createdAt,value
2018-08-11T00:00:24.111Z,9.17
2018-08-11T00:02:53.462Z,10.67
2018-08-11T00:05:22.723Z,9.93
2018-08-11T00:07:52.145Z,10.53
2018-08-11T00:10:21.586Z,10.63
2018-08-11T00:12:50.903Z,11.47
2018-08-11T00:15:21.037Z,11.80
2018-08-11T00:17:50.379Z,10.63
2018-08-11T00:20:23.082Z,11.23
2018-08-11T00:22:52.429Z,11.23
2018-08-11T00:25:21.767Z,11.40
2018-08-11T00:27:51.133Z,12.53
2018-08-11T00:30:23.256Z,10.93
2018-08-11T00:32:52.598Z,11.53
2018-08-11T00:35:21.997Z,11.83
2018-08-11T00:37:51.396Z,11.40
2018-08-11T00:40:21.182Z,12.10
2018-08-11T00:42:51.244Z,11.50
2018-08-11T00:45:20.561Z,11.70
2018-08-11T00:47:50.062Z,12.33
2018-08-11T00:50:30.333Z,12.95
2018-08-11T00:52:59.705Z,12.70
2018-08-11T00:55:29.058Z,11.17
2018-08-11T00:57:58.367Z,11.10
2018-08-11T01:00:27.769Z,10.60
2018-08-11T01:02:57.134Z,14.33
2018-08-11T01:05:26.643Z,16.20
2018-08-11T01:07:56.552Z,12.68
2018-08-11T01:10:28.749Z,13.50
2018-08-11T01:12:58.088Z,12.50
2018-08-11T01:15:27.416Z,12.17
2018-08-11T01:17:56.698Z,13.83
2018-08-11T01:20:26.750Z,13.85
2018-08-11T01:22:56.772Z,15.73
2018-08-11T01:25:26.729Z,12.70
2018-08-11T01:27:56.796Z,13.48
2018-08-11T01:30:26.739Z,10.90
2018-08-11T01:32:56.881Z,13.25
2018-08-11T01:35:26.890Z,13.20
2018-08-11T01:37:56.838Z,11.12
2018-08-11T01:40:26.794Z,20.97
2018-08-11T01:42:56.896Z,21.03
2018-08-11T01:45:26.958Z,13.27
2018-08-11T01:47:56.867Z,29.60
2018-08-11T01:50:26.906Z,29.98
2018-08-11T01:52:56.892Z,25.97
2018-08-11T01:55:27.020Z,11.83
2018-08-11T01:57:57.069Z,12.40
2018-08-11T02:00:26.340Z,19.90
2018-08-11T02:02:56.695Z,9.50
2018-08-11T02:05:25.922Z,22.17
2018-08-11T02:07:55.180Z,45.30
2018-08-11T02:10:24.410Z,9.60
2018-08-11T02:12:53.773Z,36.57
2018-08-11T02:15:23.131Z,31.97
2018-08-11T02:17:52.386Z,53.27
2018-08-11T02:20:21.664Z,46.53
2018-08-11T02:22:50.960Z,11.90
2018-08-11T02:25:20.285Z,35.50
2018-08-11T02:27:49.528Z,52.40
2018-08-11T02:30:19.064Z,67.20
2018-08-11T02:32:48.432Z,39.53
2018-08-11T02:35:17.804Z,41.17
2018-08-11T02:37:47.140Z,28.57
2018-08-11T02:40:17.049Z,8.33
2018-08-11T02:42:46.540Z,45.37
2018-08-11T02:45:17.020Z,43.87
2018-08-11T02:47:47.120Z,10.63
2018-08-11T02:50:16.402Z,24.07
2018-08-11T02:52:45.794Z,10.87
2018-08-11T02:55:15.193Z,43.83
2018-08-11T02:57:44.567Z,25.48
2018-08-11T03:00:14.034Z,17.23
2018-08-11T03:02:43.280Z,12.05
2018-08-11T03:05:12.564Z,13.30
2018-08-11T03:07:41.884Z,11.70
2018-08-11T03:10:12.254Z,10.70
2018-08-11T03:12:41.797Z,12.70
2018-08-11T03:15:12.483Z,15.60
2018-08-11T03:17:41.999Z,17.50
2018-08-11T03:20:13.851Z,13.40
2018-08-11T03:22:43.619Z,19.27
2018-08-11T03:25:12.946Z,19.85
2018-08-11T03:27:42.392Z,13.47
2018-08-11T03:30:11.813Z,12.83
2018-08-11T03:32:41.094Z,13.55
2018-08-11T03:35:10.352Z,20.20
2018-08-11T03:37:39.740Z,13.75
2018-08-11T03:40:10.308Z,11.75
2018-08-11T03:42:39.950Z,12.63
2018-08-11T03:45:09.323Z,17.73
2018-08-11T03:47:38.668Z,24.60
2018-08-11T03:50:08.266Z,23.13
2018-08-11T03:52:37.905Z,13.37
2018-08-11T03:55:07.155Z,14.53
2018-08-11T03:57:36.500Z,13.40
2018-08-11T04:00:08.362Z,22.17
2018-08-11T04:02:37.737Z,17.43
2018-08-11T04:05:07.057Z,11.55
2018-08-11T04:07:36.295Z,12.00
2018-08-11T04:10:06.092Z,11.43
2018-08-11T04:12:35.459Z,12.10
2018-08-11T04:15:04.816Z,17.90
2018-08-11T04:17:38.433Z,12.27
2018-08-11T04:20:09.380Z,13.33
2018-08-11T04:22:38.802Z,20.43
2018-08-11T04:25:08.694Z,26.23
2018-08-11T04:27:38.301Z,12.70
2018-08-11T04:30:09.018Z,18.82
2018-08-11T04:32:38.420Z,16.63
2018-08-11T04:35:07.910Z,13.63
2018-08-11T04:37:37.216Z,14.50
2018-08-11T04:40:06.521Z,12.97
2018-08-11T04:42:35.864Z,13.20
2018-08-11T04:45:06.000Z,14.87
2018-08-11T04:47:35.312Z,13.78
2018-08-11T04:50:05.204Z,12.85
2018-08-11T04:52:34.757Z,13.53
2018-08-11T04:55:04.355Z,24.20
2018-08-11T04:57:33.769Z,13.40
2018-08-11T05:00:03.212Z,14.67
2018-08-11T05:02:32.486Z,13.23
2018-08-11T05:05:02.244Z,11.50
2018-08-11T05:07:31.710Z,11.27
2018-08-11T05:10:00.980Z,11.70
2018-08-11T05:12:30.353Z,11.93
2018-08-11T05:14:59.684Z,11.23
2018-08-11T05:17:30.859Z,10.47
2018-08-11T05:20:00.205Z,10.23
2018-08-11T05:22:29.468Z,10.63
2018-08-11T05:24:59.034Z,11.15
2018-08-11T05:27:29.104Z,8.87
2018-08-11T05:29:59.001Z,13.78
2018-08-11T05:32:29.072Z,9.97
2018-08-11T05:34:58.859Z,5.78
2018-08-11T05:37:28.928Z,5.37
2018-08-11T05:39:59.436Z,4.90
2018-08-11T05:42:28.943Z,6.12
2018-08-11T05:44:59.084Z,6.37
2018-08-11T05:47:29.072Z,6.40
2018-08-11T05:49:58.976Z,6.20
2018-08-11T05:52:29.036Z,5.72
2018-08-11T05:54:58.976Z,6.70
2018-08-11T05:57:29.116Z,7.23
2018-08-11T05:59:59.059Z,8.08
2018-08-11T06:02:29.153Z,10.20
2018-08-11T06:04:59.135Z,6.87
2018-08-11T06:07:29.143Z,9.03
2018-08-11T06:09:59.184Z,7.83
2018-08-11T06:12:29.234Z,8.93
2018-08-11T06:14:59.189Z,8.10
2018-08-11T06:17:29.250Z,8.10
2018-08-11T06:19:59.220Z,8.70
2018-08-11T06:22:29.349Z,7.27
2018-08-11T06:24:59.298Z,7.60
2018-08-11T06:27:29.311Z,8.83
2018-08-11T06:29:59.541Z,8.17
2018-08-11T06:32:29.467Z,7.25
2018-08-11T06:34:59.477Z,8.23
2018-08-11T06:37:29.532Z,8.08
2018-08-11T06:39:59.505Z,8.20
2018-08-11T06:42:29.730Z,7.83
2018-08-11T06:44:59.504Z,7.87
2018-08-11T06:47:29.629Z,7.25
2018-08-11T06:49:59.510Z,7.87
2018-08-11T06:52:29.602Z,8.47
2018-08-11T06:54:59.608Z,8.40
2018-08-11T06:57:29.957Z,6.65
2018-08-11T06:59:59.621Z,7.63
2018-08-11T07:02:29.679Z,7.83
2018-08-11T07:04:59.691Z,8.55
2018-08-11T07:07:29.683Z,7.58
2018-08-11T07:09:59.727Z,7.10
2018-08-11T07:12:29.700Z,10.00
2018-08-11T07:14:59.791Z,8.50
2018-08-11T07:17:29.723Z,8.45
2018-08-11T07:19:59.721Z,8.20
2018-08-11T07:22:29.786Z,9.10
2018-08-11T07:24:59.994Z,8.00
2018-08-11T07:27:29.771Z,8.30
2018-08-11T07:29:59.788Z,8.20
2018-08-11T07:32:29.848Z,6.45
2018-08-11T07:34:59.876Z,6.08
2018-08-11T07:37:30.402Z,5.70
2018-08-11T07:40:00.209Z,6.10
2018-08-11T07:42:29.922Z,5.70
2018-08-11T07:44:59.952Z,10.72
2018-08-11T07:47:29.985Z,4.78
2018-08-11T07:49:59.952Z,6.37
2018-08-11T07:52:30.008Z,5.30
2018-08-11T07:54:59.968Z,4.90
2018-08-11T07:57:29.988Z,5.40
2018-08-11T08:00:00.034Z,4.97
2018-08-11T08:02:30.092Z,4.80
2018-08-11T08:05:00.116Z,4.95
2018-08-11T08:07:30.154Z,4.83
2018-08-11T08:10:00.143Z,5.77
2018-08-11T08:12:30.390Z,5.20
2018-08-11T08:15:00.200Z,5.60
2018-08-11T08:17:30.092Z,5.40
2018-08-11T08:20:00.233Z,8.65
2018-08-11T08:22:30.141Z,8.60
2018-08-11T08:25:00.152Z,5.72
2018-08-11T08:27:30.209Z,5.10
2018-08-11T08:30:00.348Z,6.22
2018-08-11T08:32:30.205Z,5.40
2018-08-11T08:35:00.363Z,6.30
2018-08-11T08:37:30.239Z,5.58
2018-08-11T08:40:00.254Z,6.43
2018-08-11T08:42:30.398Z,6.30
2018-08-11T08:45:00.381Z,7.07
2018-08-11T08:47:31.498Z,8.40
2018-08-11T08:50:00.585Z,6.10
2018-08-11T08:52:30.342Z,5.53
2018-08-11T08:55:00.405Z,5.37
2018-08-11T08:57:30.341Z,5.50
2018-08-11T09:00:00.433Z,5.37
2018-08-11T09:02:30.542Z,4.67
2018-08-11T09:05:00.439Z,4.50
2018-08-11T09:07:30.529Z,6.20
2018-08-11T09:10:00.485Z,4.67
2018-08-11T09:12:30.502Z,4.60
2018-08-11T09:15:00.545Z,3.50
2018-08-11T09:17:29.780Z,3.50
2018-08-11T09:19:59.048Z,4.13
2018-08-11T09:22:28.265Z,4.60
2018-08-11T09:24:57.464Z,3.60
2018-08-11T09:27:26.626Z,4.50
2018-08-11T09:29:55.894Z,3.73
2018-08-11T09:32:25.482Z,4.57
2018-08-11T09:34:54.621Z,3.43
2018-08-11T09:37:23.764Z,5.57
2018-08-11T09:39:52.987Z,5.23
2018-08-11T09:42:22.212Z,5.13
2018-08-11T09:44:51.398Z,3.60
2018-08-11T09:47:20.812Z,4.00
2018-08-11T09:49:49.988Z,4.10
2018-08-11T09:52:19.217Z,2.33
2018-08-11T09:54:48.440Z,4.43
2018-08-11T09:57:17.590Z,2.37
2018-08-11T09:59:46.744Z,2.80
2018-08-11T10:02:19.368Z,4.33
2018-08-11T10:04:48.556Z,3.17
2018-08-11T10:07:17.804Z,3.17
2018-08-11T10:09:46.932Z,4.03
2018-08-11T10:12:16.229Z,2.80
2018-08-11T10:14:45.408Z,2.73
2018-08-11T10:17:14.520Z,3.52
2018-08-11T10:19:43.730Z,3.00
2018-08-11T10:22:12.885Z,2.70
2018-08-11T10:24:42.093Z,3.40
2018-08-11T10:27:11.243Z,4.10
2018-08-11T10:29:40.439Z,2.72
2018-08-11T10:32:09.640Z,3.97
2018-08-11T10:34:38.818Z,2.83
2018-08-11T10:37:07.929Z,4.67
2018-08-11T10:39:37.079Z,3.00
2018-08-11T10:42:06.476Z,6.33
2018-08-11T10:44:35.571Z,5.40
2018-08-11T10:47:04.844Z,4.10
2018-08-11T10:49:33.980Z,2.90
2018-08-11T10:52:03.632Z,3.60
2018-08-11T10:54:33.669Z,5.10
2018-08-11T10:57:14.683Z,2.30
2018-08-11T10:59:43.985Z,4.80
2018-08-11T11:02:25.721Z,4.30
2018-08-11T11:04:54.777Z,3.60
2018-08-11T11:07:23.828Z,4.30
2018-08-11T11:09:52.940Z,6.67
2018-08-11T11:12:22.070Z,6.67
2018-08-11T11:14:51.261Z,3.70
2018-08-11T11:17:20.433Z,2.75
2018-08-11T11:19:49.523Z,3.80
2018-08-11T11:22:18.627Z,4.10
2018-08-11T11:24:47.662Z,3.70
2018-08-11T11:27:16.869Z,2.40
2018-08-11T11:29:45.986Z,7.40
2018-08-11T11:32:15.053Z,3.60
2018-08-11T11:34:44.192Z,4.87
2018-08-11T11:37:13.320Z,2.75
2018-08-11T11:39:42.453Z,3.73
2018-08-11T11:42:11.483Z,2.90
2018-08-11T11:44:40.585Z,3.55
2018-08-11T11:47:09.641Z,3.40
2018-08-11T11:49:38.714Z,2.98
2018-08-11T11:52:07.913Z,3.33
2018-08-11T11:54:37.210Z,6.10
2018-08-11T11:57:06.796Z,2.40
2018-08-11T11:59:35.877Z,3.90
2018-08-11T12:02:07.642Z,3.00
2018-08-11T12:04:37.843Z,2.30
2018-08-11T12:07:07.389Z,2.30
2018-08-11T12:09:36.456Z,2.33
2018-08-11T12:12:05.883Z,1.70
2018-08-11T12:14:35.091Z,2.53
2018-08-11T12:17:04.435Z,4.30
2018-08-11T12:19:34.366Z,2.10
2018-08-11T12:22:04.422Z,1.90
2018-08-11T12:24:34.420Z,2.02
2018-08-11T12:27:42.033Z,2.60
2018-08-11T12:30:13.055Z,2.55
2018-08-11T12:32:47.757Z,2.25
2018-08-11T12:35:16.932Z,3.05
2018-08-11T12:37:47.626Z,2.90
2018-08-11T12:40:17.401Z,3.62
2018-08-11T12:42:46.551Z,6.25
2018-08-11T12:45:15.652Z,1.83
2018-08-11T12:48:56.202Z,2.00
2018-08-11T12:51:29.871Z,2.67
2018-08-11T12:54:02.818Z,1.50
2018-08-11T12:56:38.953Z,4.53
2018-08-11T12:59:14.864Z,3.37
2018-08-11T13:01:44.167Z,1.63
2018-08-11T13:04:13.378Z,1.37
2018-08-11T13:06:42.720Z,2.83
2018-08-11T13:09:12.279Z,2.30
2018-08-11T13:11:41.595Z,2.03
2018-08-11T13:14:10.868Z,2.73
2018-08-11T13:16:40.222Z,2.30
2018-08-11T13:19:09.483Z,3.40
2018-08-11T13:21:38.795Z,3.03
2018-08-11T13:24:08.110Z,2.90
2018-08-11T13:26:38.090Z,2.47
2018-08-11T13:29:07.336Z,1.60
2018-08-11T13:31:36.673Z,1.73
2018-08-11T13:34:06.033Z,2.90
2018-08-11T13:36:35.313Z,2.00
2018-08-11T13:39:06.673Z,1.40
2018-08-11T13:41:45.665Z,1.30
2018-08-11T13:44:16.750Z,1.40
2018-08-11T13:46:46.075Z,1.40
2018-08-11T13:49:15.449Z,1.87
2018-08-11T13:51:45.505Z,7.00
2018-08-11T13:54:14.796Z,1.83
2018-08-11T13:56:43.977Z,2.20
2018-08-11T13:59:13.248Z,2.93
2018-08-11T14:01:42.457Z,1.30
2018-08-11T14:04:11.798Z,2.10
2018-08-11T14:06:41.108Z,4.33
2018-08-11T14:09:10.756Z,2.50
2018-08-11T14:11:39.982Z,2.43
2018-08-11T14:14:09.266Z,1.43
2018-08-11T14:16:38.619Z,2.90
2018-08-11T14:19:07.952Z,3.10
2018-08-11T14:21:37.250Z,1.80
2018-08-11T14:24:08.486Z,3.00
2018-08-11T14:26:38.250Z,2.80
2018-08-11T14:29:14.828Z,2.00
2018-08-11T14:31:43.986Z,3.83
2018-08-11T14:34:13.728Z,1.73
2018-08-11T14:36:42.938Z,2.33
2018-08-11T14:39:12.178Z,2.50
2018-08-11T14:41:41.644Z,2.40
2018-08-11T14:44:10.899Z,1.23
2018-08-11T14:46:40.338Z,2.03
2018-08-11T14:49:10.320Z,3.72
2018-08-11T14:51:40.071Z,3.80
2018-08-11T14:54:10.079Z,2.90
2018-08-11T14:56:40.066Z,1.90
2018-08-11T14:59:10.162Z,2.35
2018-08-11T15:01:39.694Z,1.23
2018-08-11T15:04:08.851Z,1.40
2018-08-11T15:06:38.026Z,5.87
2018-08-11T15:09:08.810Z,1.67
2018-08-11T15:11:38.017Z,1.37
2018-08-11T15:14:07.309Z,1.83
2018-08-11T15:16:36.536Z,1.20
2018-08-11T15:19:05.856Z,2.20
2018-08-11T15:21:35.070Z,5.90
2018-08-11T15:24:04.304Z,2.60
2018-08-11T15:26:33.495Z,1.80
2018-08-11T15:29:02.809Z,5.07
2018-08-11T15:31:32.002Z,2.50
2018-08-11T15:34:01.131Z,2.13
2018-08-11T15:36:30.263Z,2.40
2018-08-11T15:38:59.321Z,2.22
2018-08-11T15:41:28.437Z,1.30
2018-08-11T15:43:57.777Z,1.30
2018-08-11T15:46:26.996Z,1.23
2018-08-11T15:48:56.424Z,2.70
2018-08-11T15:51:26.035Z,1.10
2018-08-11T15:53:55.131Z,1.57
2018-08-11T15:56:24.251Z,1.67
2018-08-11T15:58:53.963Z,2.30
2018-08-11T16:01:23.122Z,1.83
2018-08-11T16:03:52.258Z,1.17
2018-08-11T16:06:21.689Z,2.17
2018-08-11T16:08:50.787Z,0.97
2018-08-11T16:11:20.016Z,3.37
2018-08-11T16:13:49.154Z,2.17
2018-08-11T16:16:18.323Z,3.72
2018-08-11T16:18:47.451Z,5.40
2018-08-11T16:21:16.688Z,1.25
2018-08-11T16:23:45.830Z,7.40
2018-08-11T16:26:14.970Z,5.47
2018-08-11T16:28:44.297Z,2.27
2018-08-11T16:31:13.524Z,3.00
2018-08-11T16:33:42.711Z,2.30
2018-08-11T16:36:11.851Z,1.20
2018-08-11T16:38:41.063Z,1.93
2018-08-11T16:41:10.982Z,2.03
2018-08-11T16:43:41.221Z,2.70
2018-08-11T16:46:11.149Z,4.95
2018-08-11T16:48:41.205Z,8.18
2018-08-11T16:51:10.399Z,1.47
2018-08-11T16:53:39.695Z,1.83
2018-08-11T16:56:08.947Z,2.63
2018-08-11T16:58:38.119Z,5.20
2018-08-11T17:01:07.304Z,1.50
2018-08-11T17:03:36.825Z,4.60
2018-08-11T17:06:06.029Z,2.33
2018-08-11T17:08:35.248Z,2.13
2018-08-11T17:11:04.367Z,5.40
2018-08-11T17:13:33.491Z,2.93
2018-08-11T17:16:02.626Z,2.57
2018-08-11T17:18:31.770Z,2.30
2018-08-11T17:21:00.899Z,1.27
2018-08-11T17:23:30.006Z,1.53
2018-08-11T17:25:59.288Z,1.75
2018-08-11T17:28:28.414Z,1.52
2018-08-11T17:30:57.547Z,2.30
2018-08-11T17:33:26.618Z,1.70
2018-08-11T17:35:55.751Z,1.10
2018-08-11T17:38:24.849Z,2.43
2018-08-11T17:40:53.945Z,3.30
2018-08-11T17:43:23.134Z,1.53
2018-08-11T17:45:52.901Z,4.15
